createdAt,value
2019-03-26T00:04:05.910Z,4.72
2019-03-26T00:06:40.727Z,4.82
2019-03-26T00:09:10.591Z,4.80
2019-03-26T00:11:59.710Z,4.92
2019-03-26T00:14:29.798Z,4.83
2019-03-26T00:16:59.693Z,4.67
2019-03-26T00:19:29.485Z,4.67
2019-03-26T00:21:59.012Z,4.70
2019-03-26T00:24:28.659Z,4.63
2019-03-26T00:26:58.261Z,4.66
2019-03-26T00:29:27.623Z,4.87
2019-03-26T00:31:57.356Z,4.81
2019-03-26T00:34:26.704Z,4.77
2019-03-26T00:36:56.073Z,4.63
2019-03-26T00:39:25.424Z,4.83
2019-03-26T00:41:54.772Z,4.83
2019-03-26T00:44:24.196Z,4.76
2019-03-26T00:46:53.617Z,4.69
2019-03-26T00:49:22.970Z,4.73
2019-03-26T00:51:52.580Z,4.53
2019-03-26T00:54:21.923Z,4.60
2019-03-26T00:56:51.266Z,4.52
2019-03-26T00:59:20.638Z,4.56
2019-03-26T01:01:49.988Z,4.75
2019-03-26T01:04:31.778Z,4.69
2019-03-26T01:07:00.078Z,4.40
2019-03-26T01:09:29.428Z,4.52
2019-03-26T01:11:59.064Z,4.57
2019-03-26T01:14:28.511Z,4.51
2019-03-26T01:17:17.223Z,4.67
2019-03-26T01:19:46.588Z,4.73
2019-03-26T01:22:15.949Z,4.67
2019-03-26T01:24:45.659Z,4.80
2019-03-26T01:27:15.279Z,4.73
2019-03-26T01:29:45.174Z,4.71
2019-03-26T01:32:16.509Z,4.57
2019-03-26T01:34:46.466Z,4.61
2019-03-26T01:37:22.382Z,4.62
2019-03-26T01:39:51.728Z,4.59
2019-03-26T01:42:21.076Z,4.40
2019-03-26T01:44:50.435Z,4.43
2019-03-26T01:47:19.784Z,4.25
2019-03-26T01:49:49.138Z,4.14
2019-03-26T01:52:18.507Z,4.02
2019-03-26T01:54:54.021Z,4.08
2019-03-26T01:57:23.389Z,4.05
2019-03-26T01:59:53.058Z,4.01
2019-03-26T02:02:22.641Z,3.99
2019-03-26T02:04:59.818Z,3.96
2019-03-26T02:07:28.652Z,4.00
2019-03-26T02:09:58.334Z,3.90
2019-03-26T02:12:27.696Z,3.97
2019-03-26T02:14:57.114Z,3.95
2019-03-26T02:17:26.533Z,3.95
2019-03-26T02:19:55.896Z,4.08
2019-03-26T02:22:25.556Z,4.05
2019-03-26T02:24:54.904Z,4.06
2019-03-26T02:27:24.267Z,4.07
2019-03-26T02:29:53.617Z,4.03
2019-03-26T02:32:22.964Z,3.91
2019-03-26T02:34:52.327Z,3.85
2019-03-26T02:37:21.717Z,3.82
2019-03-26T02:39:51.276Z,3.75
2019-03-26T02:42:20.641Z,3.75
2019-03-26T02:44:49.989Z,3.79
2019-03-26T02:47:19.597Z,3.85
2019-03-26T02:49:48.955Z,3.86
2019-03-26T02:52:18.305Z,3.81
2019-03-26T02:54:47.654Z,3.72
2019-03-26T02:57:17.301Z,3.72
2019-03-26T02:59:46.642Z,3.71
2019-03-26T03:02:15.989Z,3.63
2019-03-26T03:04:45.354Z,3.65
2019-03-26T03:07:14.703Z,3.58
2019-03-26T03:09:44.048Z,3.61
2019-03-26T03:12:13.410Z,3.61
2019-03-26T03:14:42.760Z,3.65
2019-03-26T03:17:12.185Z,3.80
2019-03-26T03:19:41.550Z,3.81
2019-03-26T03:22:10.902Z,3.83
2019-03-26T03:24:40.251Z,3.90
2019-03-26T03:27:09.603Z,3.88
2019-03-26T03:29:58.045Z,3.88
2019-03-26T03:32:27.431Z,3.81
2019-03-26T03:34:56.768Z,3.74
2019-03-26T03:37:26.095Z,3.92
2019-03-26T03:39:55.459Z,3.79
2019-03-26T03:42:24.797Z,3.69
2019-03-26T03:44:54.500Z,3.74
2019-03-26T03:47:44.872Z,3.85
2019-03-26T03:59:30.617Z,3.82
2019-03-26T04:01:59.964Z,3.76
2019-03-26T04:04:48.695Z,3.70
2019-03-26T04:07:18.041Z,3.85
2019-03-26T04:09:47.433Z,3.98
2019-03-26T04:12:17.096Z,3.92
2019-03-26T04:14:48.075Z,3.78
2019-03-26T04:17:17.447Z,3.85
2019-03-26T04:19:46.798Z,3.86
2019-03-26T04:22:16.133Z,3.90
2019-03-26T04:24:45.747Z,3.87
2019-03-26T04:27:15.099Z,3.87
2019-03-26T04:29:44.452Z,3.91
2019-03-26T04:32:14.164Z,3.97
2019-03-26T04:34:43.543Z,3.86
2019-03-26T04:37:12.891Z,3.98
2019-03-26T04:39:42.257Z,3.88
2019-03-26T04:42:11.659Z,3.94
2019-03-26T04:44:41.275Z,4.00
2019-03-26T04:47:10.636Z,4.04
2019-03-26T04:49:39.984Z,3.89
2019-03-26T04:52:09.582Z,3.91
2019-03-26T04:54:38.951Z,3.90
2019-03-26T04:57:08.532Z,3.88
2019-03-26T04:59:37.879Z,3.91
2019-03-26T05:02:07.493Z,3.88
2019-03-26T05:04:37.111Z,3.96
2019-03-26T05:07:06.855Z,3.99
2019-03-26T05:09:55.307Z,3.97
2019-03-26T05:12:24.984Z,3.99
2019-03-26T05:14:54.593Z,4.01
2019-03-26T05:17:24.299Z,3.99
2019-03-26T05:19:53.904Z,4.08
2019-03-26T05:22:24.534Z,4.13
2019-03-26T05:25:13.791Z,4.07
2019-03-26T05:27:45.751Z,4.20
2019-03-26T05:30:23.935Z,4.11
2019-03-26T05:32:53.291Z,4.21
2019-03-26T05:35:22.635Z,4.19
2019-03-26T05:37:51.992Z,4.17
2019-03-26T05:40:21.352Z,4.24
2019-03-26T05:42:50.990Z,4.34
2019-03-26T05:45:20.422Z,4.53
2019-03-26T05:47:49.772Z,4.41
2019-03-26T05:50:19.173Z,4.54
2019-03-26T05:52:48.555Z,4.49
2019-03-26T05:55:18.161Z,4.63
2019-03-26T05:57:47.499Z,4.70
2019-03-26T06:00:57.008Z,4.53
2019-03-26T06:03:26.366Z,4.67
2019-03-26T06:05:55.785Z,4.60
2019-03-26T06:08:25.138Z,4.57
2019-03-26T06:10:54.766Z,4.67
2019-03-26T06:13:43.460Z,4.68
2019-03-26T06:16:13.140Z,4.93
2019-03-26T06:18:42.480Z,4.83
2019-03-26T06:21:11.848Z,4.77
2019-03-26T06:23:41.199Z,4.89
2019-03-26T06:26:10.846Z,4.95
2019-03-26T06:28:40.208Z,5.00
2019-03-26T06:31:09.855Z,5.06
2019-03-26T06:33:39.200Z,5.00
2019-03-26T06:36:08.547Z,5.07
2019-03-26T06:38:38.280Z,5.13
2019-03-26T06:41:07.643Z,4.90
2019-03-26T06:43:37.275Z,5.00
2019-03-26T06:46:06.632Z,5.02
2019-03-26T06:48:36.291Z,5.21
2019-03-26T06:51:07.536Z,5.10
2019-03-26T06:53:36.893Z,5.10
2019-03-26T06:58:47.724Z,5.35
2019-03-26T07:04:18.073Z,5.10
2019-03-26T07:06:47.675Z,5.01
2019-03-26T07:09:17.285Z,5.27
2019-03-26T07:11:46.643Z,5.45
2019-03-26T07:14:16.293Z,5.65
2019-03-26T07:16:45.647Z,5.46
2019-03-26T07:19:14.999Z,5.42
2019-03-26T07:21:49.449Z,5.54
2019-03-26T07:24:34.896Z,5.38
2019-03-26T07:27:04.287Z,5.29
2019-03-26T07:29:33.925Z,5.42
2019-03-26T07:32:03.636Z,5.27
2019-03-26T07:34:33.009Z,5.44
2019-03-26T07:37:02.630Z,5.69
2019-03-26T07:39:31.975Z,5.94
2019-03-26T07:42:01.636Z,5.80
2019-03-26T07:44:31.245Z,5.70
2019-03-26T07:47:00.852Z,5.14
2019-03-26T07:49:30.451Z,5.46
2019-03-26T07:52:00.081Z,5.57
2019-03-26T07:54:32.445Z,5.86
2019-03-26T07:57:19.579Z,5.97
2019-03-26T07:59:48.961Z,5.63
2019-03-26T08:02:18.308Z,5.89
2019-03-26T08:04:47.655Z,5.94
2019-03-26T08:07:17.271Z,6.10
2019-03-26T08:09:46.616Z,6.10
2019-03-26T08:12:15.955Z,5.83
2019-03-26T08:14:45.316Z,5.64
2019-03-26T08:17:14.898Z,5.75
2019-03-26T08:19:44.540Z,6.00
2019-03-26T08:22:14.203Z,6.41
2019-03-26T08:24:43.555Z,6.33
2019-03-26T08:27:12.923Z,5.77
2019-03-26T08:29:55.060Z,5.55
2019-03-26T08:32:24.485Z,5.84
2019-03-26T08:34:53.880Z,5.69
2019-03-26T08:37:23.226Z,5.79
2019-03-26T08:39:52.922Z,6.07
2019-03-26T08:42:22.275Z,6.01
2019-03-26T08:44:51.941Z,6.27
2019-03-26T08:47:21.275Z,6.08
2019-03-26T08:49:50.624Z,6.23
2019-03-26T08:52:19.966Z,6.55
2019-03-26T08:54:49.313Z,6.55
2019-03-26T08:57:18.958Z,6.21
2019-03-26T08:59:48.761Z,6.80
2019-03-26T09:02:18.105Z,6.74
2019-03-26T09:04:47.783Z,6.92
2019-03-26T09:07:17.136Z,7.29
2019-03-26T09:09:46.779Z,7.60
2019-03-26T09:12:18.027Z,7.53
2019-03-26T09:14:47.364Z,7.91
2019-03-26T09:17:19.879Z,7.79
2019-03-26T09:19:55.263Z,7.82
2019-03-26T09:22:26.255Z,7.53
2019-03-26T09:24:57.227Z,7.39
2019-03-26T09:27:28.473Z,6.91
2019-03-26T09:29:59.745Z,6.55
2019-03-26T09:32:29.071Z,6.71
2019-03-26T09:34:58.584Z,6.89
2019-03-26T09:37:27.933Z,6.75
2019-03-26T09:39:57.414Z,6.83
2019-03-26T09:42:26.850Z,7.19
2019-03-26T09:44:56.814Z,7.51
2019-03-26T09:47:46.942Z,7.28
2019-03-26T09:50:56.248Z,7.29
2019-03-26T09:53:25.583Z,7.20
2019-03-26T09:55:54.934Z,7.22
2019-03-26T09:58:24.270Z,7.03
2019-03-26T10:00:54.010Z,7.13
2019-03-26T10:03:23.354Z,7.04
2019-03-26T10:05:52.744Z,6.76
2019-03-26T10:08:22.096Z,6.70
2019-03-26T10:10:51.436Z,7.05
2019-03-26T10:13:20.774Z,6.96
2019-03-26T10:15:50.406Z,7.30
2019-03-26T10:18:19.753Z,7.68
2019-03-26T10:20:49.093Z,7.63
2019-03-26T10:23:18.432Z,7.85
2019-03-26T10:25:48.019Z,8.05
2019-03-26T10:28:17.627Z,8.48
2019-03-26T10:30:47.238Z,8.02
2019-03-26T10:33:16.578Z,8.28
2019-03-26T10:35:45.988Z,8.53
2019-03-26T10:38:15.575Z,8.80
2019-03-26T10:40:45.264Z,8.38
2019-03-26T10:43:14.611Z,8.88
2019-03-26T10:45:44.276Z,8.50
2019-03-26T10:50:53.614Z,8.25
2019-03-26T10:53:22.960Z,8.71
2019-03-26T10:55:52.643Z,9.14
2019-03-26T10:58:22.225Z,8.79
2019-03-26T11:00:51.650Z,8.43
2019-03-26T11:03:21.350Z,8.73
2019-03-26T11:05:50.781Z,8.74
2019-03-26T11:08:20.360Z,8.57
2019-03-26T11:10:49.764Z,8.66
2019-03-26T11:13:19.123Z,8.85
2019-03-26T11:15:48.445Z,9.59
2019-03-26T11:18:18.070Z,9.40
2019-03-26T11:21:01.042Z,10.07
2019-03-26T11:23:37.872Z,10.44
2019-03-26T11:26:07.211Z,10.33
2019-03-26T11:28:36.879Z,9.58
2019-03-26T11:31:06.301Z,10.14
2019-03-26T11:33:37.267Z,9.48
2019-03-26T11:36:06.687Z,9.06
2019-03-26T11:38:36.030Z,8.75
2019-03-26T11:41:05.604Z,9.14
2019-03-26T11:43:34.947Z,9.16
2019-03-26T11:46:04.661Z,9.22
2019-03-26T11:48:34.355Z,9.25
2019-03-26T11:51:03.690Z,9.11
2019-03-26T11:53:33.379Z,9.35
2019-03-26T11:56:03.075Z,9.67
2019-03-26T11:58:32.419Z,9.44
2019-03-26T12:01:01.750Z,9.42
2019-03-26T12:03:31.116Z,9.42
2019-03-26T12:06:00.461Z,9.18
2019-03-26T12:08:30.204Z,9.46
2019-03-26T12:10:59.901Z,9.51
2019-03-26T12:13:29.299Z,9.16
2019-03-26T12:15:58.637Z,9.38
2019-03-26T12:18:27.982Z,9.51
2019-03-26T12:20:57.615Z,10.03
2019-03-26T12:23:26.972Z,9.82
2019-03-26T12:25:56.624Z,9.71
2019-03-26T12:28:26.211Z,10.09
2019-03-26T12:30:57.479Z,10.13
2019-03-26T12:33:28.723Z,10.33
2019-03-26T12:35:59.985Z,9.43
2019-03-26T12:38:29.679Z,8.83
2019-03-26T12:41:00.927Z,8.60
2019-03-26T12:43:32.180Z,8.54
2019-03-26T12:46:03.149Z,8.88
2019-03-26T12:48:34.130Z,8.89
2019-03-26T12:51:05.106Z,9.39
2019-03-26T12:53:34.453Z,8.89
2019-03-26T12:56:03.928Z,8.86
2019-03-26T12:58:36.395Z,9.10
2019-03-26T13:01:23.700Z,9.16
2019-03-26T13:03:53.123Z,9.05
2019-03-26T13:06:22.459Z,9.25
2019-03-26T13:08:51.812Z,9.61
2019-03-26T13:11:21.142Z,9.33
2019-03-26T13:17:05.281Z,9.14
2019-03-26T13:19:34.890Z,10.02
2019-03-26T13:22:04.250Z,10.21
2019-03-26T13:24:33.593Z,10.13
2019-03-26T13:27:03.197Z,10.07
2019-03-26T13:29:32.795Z,10.63
2019-03-26T13:32:04.039Z,10.93
2019-03-26T13:34:33.396Z,10.60
2019-03-26T13:37:02.737Z,10.39
2019-03-26T13:39:32.364Z,10.62
2019-03-26T13:42:01.767Z,10.70
2019-03-26T13:44:31.108Z,10.78
2019-03-26T13:47:00.711Z,10.58
2019-03-26T13:49:30.057Z,10.27
2019-03-26T13:51:59.688Z,10.58
2019-03-26T13:54:29.279Z,10.36
2019-03-26T13:56:58.887Z,10.64
2019-03-26T13:59:28.255Z,10.58
2019-03-26T14:01:57.602Z,10.90
2019-03-26T14:04:32.952Z,11.01
2019-03-26T14:07:02.299Z,10.73
2019-03-26T14:09:31.641Z,10.78
2019-03-26T14:12:00.992Z,10.75
2019-03-26T14:14:30.393Z,9.91
2019-03-26T14:17:00.168Z,10.79
2019-03-26T14:19:29.609Z,11.40
2019-03-26T14:21:58.959Z,11.12
2019-03-26T14:24:47.400Z,10.61
2019-03-26T14:27:17.010Z,10.89
2019-03-26T14:29:46.354Z,10.65
2019-03-26T14:32:15.939Z,11.58
2019-03-26T14:34:48.974Z,11.40
2019-03-26T14:37:21.732Z,11.09
2019-03-26T14:39:54.344Z,11.26
2019-03-26T14:42:28.279Z,10.72
2019-03-26T14:44:57.885Z,10.41
2019-03-26T14:47:27.239Z,10.63
2019-03-26T14:49:56.899Z,10.51
2019-03-26T14:52:26.252Z,10.82
2019-03-26T14:54:55.906Z,10.51
2019-03-26T14:57:25.514Z,10.60
2019-03-26T14:59:56.499Z,9.53
2019-03-26T15:02:26.279Z,9.58
2019-03-26T15:05:01.632Z,9.30
2019-03-26T15:07:31.315Z,9.76
2019-03-26T15:10:00.660Z,9.77
2019-03-26T15:12:30.328Z,9.55
2019-03-26T15:14:59.660Z,9.53
2019-03-26T15:17:29.333Z,9.36
2019-03-26T15:19:58.678Z,9.10
2019-03-26T15:22:28.023Z,9.19
2019-03-26T15:25:17.015Z,9.41
2019-03-26T15:27:46.372Z,9.27
2019-03-26T15:30:35.367Z,9.24
2019-03-26T15:33:44.628Z,9.57
2019-03-26T15:36:14.212Z,9.98
2019-03-26T15:38:43.551Z,9.15
2019-03-26T15:41:21.653Z,9.39
2019-03-26T15:44:03.617Z,9.46
2019-03-26T15:46:36.207Z,9.29
2019-03-26T15:49:23.410Z,9.26
2019-03-26T15:51:53.021Z,8.99
2019-03-26T15:54:22.367Z,9.21
2019-03-26T15:56:51.711Z,9.09
2019-03-26T15:59:21.332Z,8.96
2019-03-26T16:01:50.955Z,8.70
2019-03-26T16:04:20.298Z,8.55
2019-03-26T16:06:55.249Z,8.65
2019-03-26T16:09:24.600Z,8.51
2019-03-26T16:11:54.186Z,8.42
2019-03-26T16:14:23.786Z,8.46
2019-03-26T16:16:53.137Z,8.55
2019-03-26T16:19:32.054Z,8.54
2019-03-26T16:22:12.886Z,8.39
2019-03-26T16:24:42.285Z,8.49
2019-03-26T16:27:30.662Z,8.31
2019-03-26T16:29:59.998Z,8.38
2019-03-26T16:32:48.696Z,8.16
2019-03-26T16:35:18.303Z,7.87
2019-03-26T16:37:47.665Z,7.84
2019-03-26T16:40:17.310Z,7.84
2019-03-26T16:42:46.720Z,7.83
2019-03-26T16:45:16.132Z,7.66
2019-03-26T16:47:45.466Z,7.78
2019-03-26T16:50:56.598Z,7.88
2019-03-26T16:53:26.208Z,7.78
2019-03-26T16:55:57.198Z,7.57
2019-03-26T16:58:28.182Z,7.48
2019-03-26T17:00:57.536Z,7.58
2019-03-26T17:03:46.444Z,7.46
2019-03-26T17:06:15.789Z,7.40
2019-03-26T17:08:51.298Z,7.43
2019-03-26T17:11:20.654Z,7.39
2019-03-26T17:13:50.270Z,7.43
2019-03-26T17:16:20.295Z,7.32
2019-03-26T17:18:49.916Z,7.26
2019-03-26T17:21:21.773Z,7.23
2019-03-26T17:23:51.403Z,7.12
2019-03-26T17:26:21.006Z,7.22
2019-03-26T17:28:51.999Z,7.22
2019-03-26T17:31:21.338Z,7.18
2019-03-26T17:33:50.987Z,7.26
2019-03-26T17:36:20.573Z,7.24
2019-03-26T17:38:51.544Z,7.23
2019-03-26T17:41:22.852Z,7.26
2019-03-26T17:43:52.458Z,7.31
2019-03-26T17:46:21.814Z,7.26
2019-03-26T17:48:51.465Z,7.31
2019-03-26T17:51:21.087Z,7.37
2019-03-26T17:53:50.450Z,7.41
2019-03-26T17:56:19.783Z,7.37
2019-03-26T17:58:49.135Z,7.31
2019-03-26T18:01:18.469Z,7.31
2019-03-26T18:03:47.872Z,7.31
2019-03-26T18:06:17.225Z,7.28
2019-03-26T18:08:48.214Z,7.24
2019-03-26T18:11:17.832Z,7.27
2019-03-26T18:13:47.442Z,7.34
2019-03-26T18:16:16.798Z,7.26
2019-03-26T18:18:46.451Z,7.17
2019-03-26T18:21:16.058Z,7.26
2019-03-26T18:23:45.646Z,7.21
2019-03-26T18:26:14.982Z,7.19
2019-03-26T18:28:44.675Z,7.24
2019-03-26T18:31:14.258Z,7.26
2019-03-26T18:33:43.622Z,7.20
2019-03-26T18:36:12.963Z,7.32
2019-03-26T18:38:42.598Z,7.22
2019-03-26T18:41:11.938Z,7.28
2019-03-26T18:43:41.270Z,7.25
2019-03-26T18:46:10.913Z,7.30
2019-03-26T18:48:41.645Z,7.38
2019-03-26T18:51:16.751Z,7.21
2019-03-26T18:53:47.728Z,7.29
2019-03-26T18:56:17.425Z,7.25
2019-03-26T18:58:47.036Z,7.30
2019-03-26T19:01:16.657Z,7.21
2019-03-26T19:03:45.987Z,7.24
2019-03-26T19:06:15.566Z,7.16
2019-03-26T19:08:44.910Z,7.19
2019-03-26T19:11:14.675Z,7.21
2019-03-26T19:13:44.030Z,7.21
2019-03-26T19:16:13.369Z,7.21
2019-03-26T19:18:42.709Z,7.22
2019-03-26T19:21:12.052Z,7.18
2019-03-26T19:23:41.386Z,7.14
2019-03-26T19:26:10.741Z,7.25
2019-03-26T19:28:40.073Z,7.21
2019-03-26T19:31:09.680Z,7.24
2019-03-26T19:33:39.281Z,7.18
2019-03-26T19:36:08.625Z,7.18
2019-03-26T19:38:38.297Z,7.19
2019-03-26T19:41:07.905Z,7.25
2019-03-26T19:43:37.511Z,7.10
2019-03-26T19:46:06.854Z,7.12
2019-03-26T19:48:36.206Z,7.09
2019-03-26T19:51:05.824Z,7.12
2019-03-26T19:53:35.445Z,7.15
2019-03-26T19:56:05.036Z,7.19
2019-03-26T19:58:34.655Z,7.12
2019-03-26T20:01:04.331Z,7.17
2019-03-26T20:03:33.964Z,7.21
2019-03-26T20:06:12.745Z,7.16
2019-03-26T20:09:06.205Z,7.24
2019-03-26T20:11:35.812Z,7.18
2019-03-26T20:14:05.582Z,7.13
2019-03-26T20:16:41.652Z,7.20
2019-03-26T20:19:25.404Z,7.13
2019-03-26T20:21:54.757Z,7.13
2019-03-26T20:24:24.092Z,7.00
2019-03-26T20:26:53.779Z,7.13
2019-03-26T20:29:23.218Z,7.01
2019-03-26T20:31:52.554Z,7.16
2019-03-26T20:34:22.267Z,7.09
2019-03-26T20:36:51.808Z,7.12
2019-03-26T20:39:21.156Z,7.09
2019-03-26T20:42:09.839Z,7.03
2019-03-26T20:44:46.206Z,7.06
2019-03-26T20:47:15.794Z,7.19
2019-03-26T20:49:45.269Z,7.02
2019-03-26T20:52:14.949Z,7.03
2019-03-26T20:54:44.292Z,6.89
2019-03-26T20:58:05.980Z,6.87
2019-03-26T21:00:44.432Z,6.82
2019-03-26T21:03:14.014Z,6.82
2019-03-26T21:05:43.436Z,6.85
2019-03-26T21:08:13.019Z,7.00
2019-03-26T21:10:42.590Z,6.85
2019-03-26T21:13:18.210Z,6.82
2019-03-26T21:15:57.197Z,6.91
2019-03-26T21:18:38.253Z,6.88
2019-03-26T21:21:07.782Z,6.87
2019-03-26T21:23:37.114Z,6.87
2019-03-26T21:26:06.779Z,7.01
2019-03-26T21:28:36.115Z,6.90
2019-03-26T21:31:05.467Z,7.03
2019-03-26T21:33:34.810Z,6.92
2019-03-26T21:41:44.074Z,6.95
2019-03-26T21:44:15.048Z,6.91
2019-03-26T21:46:46.345Z,6.80
2019-03-26T21:49:15.684Z,6.83
2019-03-26T21:51:45.392Z,6.74
2019-03-26T21:54:14.777Z,6.65
2019-03-26T21:56:45.878Z,6.63
2019-03-26T21:59:27.807Z,6.67
2019-03-26T22:01:57.397Z,6.67
2019-03-26T22:04:26.754Z,6.62
2019-03-26T22:06:56.415Z,6.80
2019-03-26T22:09:25.753Z,6.77
2019-03-26T22:11:55.099Z,6.84
2019-03-26T22:14:24.455Z,6.79
2019-03-26T22:16:53.831Z,6.85
2019-03-26T22:19:42.565Z,6.81
2019-03-26T22:22:11.908Z,6.68
2019-03-26T22:24:41.255Z,6.78
2019-03-26T22:27:29.680Z,6.78
2019-03-26T22:29:59.334Z,6.86
2019-03-26T22:32:28.941Z,6.81
2019-03-26T22:34:58.563Z,6.79
2019-03-26T22:37:27.942Z,6.83
2019-03-26T22:39:57.557Z,6.71
2019-03-26T22:42:27.166Z,6.89
2019-03-26T22:44:56.758Z,7.01
2019-03-26T22:47:26.090Z,6.84
2019-03-26T22:49:57.317Z,6.74
2019-03-26T22:52:45.567Z,6.71
2019-03-26T22:55:15.280Z,6.73
2019-03-26T22:58:03.719Z,6.72
2019-03-26T23:03:28.506Z,6.65
2019-03-26T23:05:57.858Z,6.59
2019-03-26T23:08:27.188Z,6.75
2019-03-26T23:10:56.545Z,6.68
2019-03-26T23:13:25.872Z,6.66
2019-03-26T23:16:00.639Z,6.67
2019-03-26T23:18:30.283Z,6.71
2019-03-26T23:20:59.619Z,6.62
2019-03-26T23:23:29.290Z,6.69
2019-03-26T23:25:58.626Z,6.67
2019-03-26T23:28:28.208Z,6.68
2019-03-26T23:30:57.807Z,6.76
2019-03-26T23:33:27.415Z,6.71
2019-03-26T23:35:56.771Z,6.66
2019-03-26T23:38:26.427Z,6.72
2019-03-26T23:43:29.152Z,6.86
2019-03-26T23:45:58.486Z,6.68
2019-03-26T23:48:27.838Z,6.72
2019-03-26T23:50:57.438Z,6.58
2019-03-26T23:53:27.043Z,6.61
2019-03-26T23:55:56.648Z,6.71
2019-03-26T23:58:26.228Z,6.73
